createdAt,value
2019-04-28T00:02:01.432Z,2.90
2019-04-28T00:07:06.247Z,2.60
2019-04-28T00:12:11.606Z,2.60
2019-04-28T00:17:16.411Z,2.70
2019-04-28T00:22:24.808Z,2.90
2019-04-28T00:27:31.595Z,2.50
2019-04-28T00:32:39.115Z,2.77
2019-04-28T00:37:46.672Z,2.80
2019-04-28T00:42:51.103Z,2.45
2019-04-28T00:47:55.337Z,3.47
2019-04-28T00:52:59.252Z,3.52
2019-04-28T00:58:07.719Z,2.35
2019-04-28T01:03:23.885Z,3.10
2019-04-28T01:08:41.952Z,2.70
2019-04-28T01:14:07.669Z,2.80
2019-04-28T01:19:31.828Z,3.17
2019-04-28T01:24:40.255Z,3.37
2019-04-28T01:29:52.875Z,3.20
2019-04-28T01:35:02.382Z,2.67
2019-04-28T01:40:11.064Z,3.27
2019-04-28T01:45:42.547Z,2.72
2019-04-28T01:51:09.521Z,2.70
2019-04-28T01:56:17.899Z,2.70
2019-04-28T02:01:30.309Z,3.00
2019-04-28T02:06:39.894Z,2.80
2019-04-28T02:11:52.231Z,3.10
2019-04-28T02:17:05.613Z,3.05
2019-04-28T02:22:34.549Z,2.92
2019-04-28T02:27:42.924Z,3.08
2019-04-28T02:32:58.139Z,2.85
2019-04-28T02:38:26.739Z,2.37
2019-04-28T02:43:57.220Z,3.10
2019-04-28T02:49:10.230Z,2.77
2019-04-28T02:54:17.098Z,2.55
2019-04-28T02:59:50.830Z,2.27
2019-04-28T03:05:01.725Z,2.72
2019-04-28T03:10:06.277Z,2.77
2019-04-28T03:15:52.695Z,2.87
2019-04-28T03:21:04.385Z,2.98
2019-04-28T03:26:35.301Z,2.60
2019-04-28T03:32:28.971Z,2.70
2019-04-28T03:37:23.541Z,2.58
2019-04-28T03:43:15.299Z,2.55
2019-04-28T03:48:21.775Z,4.33
2019-04-28T03:54:00.630Z,2.98
2019-04-28T04:10:23.722Z,3.35
2019-04-28T04:15:54.178Z,3.58
2019-04-28T04:21:11.432Z,2.80
2019-04-28T04:26:33.228Z,3.58
2019-04-28T04:31:42.766Z,3.55
2019-04-28T04:37:00.757Z,3.17
2019-04-28T04:42:30.680Z,3.33
2019-04-28T04:47:40.468Z,3.42
2019-04-28T04:52:46.746Z,3.33
2019-04-28T04:57:54.746Z,3.30
2019-04-28T05:03:10.581Z,3.02
2019-04-28T05:08:36.048Z,3.27
2019-04-28T05:13:39.924Z,3.92
2019-04-28T05:18:51.747Z,3.35
2019-04-28T05:24:30.239Z,3.52
2019-04-28T05:36:13.697Z,4.40
2019-04-28T05:41:26.334Z,4.08
2019-04-28T05:46:30.037Z,4.37
2019-04-28T05:51:42.239Z,4.30
2019-04-28T05:57:05.572Z,4.42
2019-04-28T06:02:12.272Z,5.28
2019-04-28T06:07:22.907Z,5.00
2019-04-28T06:12:25.835Z,4.85
2019-04-28T06:17:30.104Z,4.95
2019-04-28T06:22:38.642Z,6.20
2019-04-28T06:27:42.444Z,5.45
2019-04-28T06:33:10.459Z,6.15
2019-04-28T06:38:22.386Z,5.62
2019-04-28T06:43:24.821Z,6.37
2019-04-28T06:48:41.807Z,6.30
2019-04-28T06:53:45.848Z,5.42
2019-04-28T06:58:59.207Z,5.30
2019-04-28T07:04:05.023Z,4.97
2019-04-28T07:09:14.438Z,4.85
2019-04-28T07:14:21.179Z,5.25
2019-04-28T07:19:23.448Z,5.28
2019-04-28T07:24:26.204Z,5.65
2019-04-28T07:29:34.627Z,4.75
2019-04-28T07:34:40.038Z,4.75
2019-04-28T07:40:33.964Z,5.10
2019-04-28T07:45:36.901Z,5.08
2019-04-28T07:50:39.102Z,4.75
2019-04-28T07:55:52.595Z,4.83
2019-04-28T08:00:59.770Z,4.97
2019-04-28T08:06:26.977Z,5.78
2019-04-28T08:17:38.418Z,6.50
2019-04-28T08:22:48.241Z,5.70
2019-04-28T08:27:53.093Z,5.15
2019-04-28T08:33:10.734Z,5.50
2019-04-28T08:38:19.474Z,4.90
2019-04-28T08:43:31.039Z,5.05
2019-04-28T08:48:44.013Z,4.20
2019-04-28T08:54:50.666Z,4.20
2019-04-28T09:00:02.544Z,4.05
2019-04-28T09:05:07.292Z,3.62
2019-04-28T09:10:10.481Z,4.28
2019-04-28T09:15:17.532Z,3.70
2019-04-28T09:21:02.978Z,3.37
2019-04-28T09:26:44.341Z,3.45
2019-04-28T09:31:50.063Z,4.30
2019-04-28T09:36:53.821Z,4.05
2019-04-28T09:42:46.548Z,3.55
2019-04-28T09:48:01.780Z,3.83
2019-04-28T09:53:13.220Z,3.05
2019-04-28T09:58:20.175Z,3.55
2019-04-28T10:03:25.264Z,4.83
2019-04-28T10:08:28.628Z,4.08
2019-04-28T10:13:37.858Z,4.10
2019-04-28T10:18:46.443Z,3.47
2019-04-28T10:23:52.135Z,3.47
2019-04-28T10:35:47.418Z,3.67
2019-04-28T10:47:33.615Z,3.77
2019-04-28T10:54:17.731Z,3.40
2019-04-28T13:16:38.144Z,4.62
2019-04-28T13:41:29.824Z,2.95
2019-04-28T14:55:24.288Z,3.83
2019-04-28T15:21:39.545Z,3.20
2019-04-28T15:26:43.124Z,3.08
2019-04-28T15:31:45.990Z,3.47
2019-04-28T15:36:49.157Z,3.27
2019-04-28T15:41:51.700Z,3.45
2019-04-28T15:47:08.122Z,3.10
2019-04-28T15:52:12.357Z,3.20
2019-04-28T15:57:23.817Z,3.00
2019-04-28T16:02:27.228Z,3.42
2019-04-28T16:07:30.293Z,2.52
2019-04-28T16:12:36.142Z,3.12
2019-04-28T16:25:16.942Z,2.20
2019-04-28T16:50:10.152Z,2.30
2019-04-28T17:09:18.041Z,2.62
2019-04-28T17:13:57.707Z,2.22
2019-04-28T17:19:01.024Z,2.10
2019-04-28T17:24:04.787Z,2.75
2019-04-28T17:29:20.493Z,2.20
2019-04-28T17:35:37.722Z,1.80
2019-04-28T17:40:40.070Z,5.80
2019-04-28T17:45:43.177Z,2.42
2019-04-28T17:56:43.147Z,1.80
2019-04-28T18:02:24.233Z,1.87
2019-04-28T18:07:34.041Z,2.00
2019-04-28T18:12:36.542Z,1.75
2019-04-28T18:18:03.601Z,1.72
2019-04-28T18:23:06.015Z,2.00
2019-04-28T18:28:08.401Z,1.80
2019-04-28T18:33:30.543Z,1.92
2019-04-28T18:38:54.292Z,2.27
2019-04-28T19:45:12.006Z,3.60
2019-04-28T19:55:59.434Z,2.87
2019-04-28T20:01:13.240Z,2.70
2019-04-28T20:06:16.269Z,2.60
2019-04-28T20:11:19.099Z,3.20
2019-04-28T20:16:21.666Z,3.42
2019-04-28T20:21:24.367Z,3.10
2019-04-28T20:26:26.704Z,3.05
2019-04-28T20:31:29.885Z,3.02
2019-04-28T20:36:52.201Z,3.55
2019-04-28T20:41:56.158Z,3.30
2019-04-28T20:46:58.778Z,2.98
2019-04-28T20:52:01.954Z,3.08
2019-04-28T20:57:04.455Z,3.22
2019-04-28T21:02:10.112Z,3.77
2019-04-28T21:07:12.401Z,2.90
2019-04-28T21:12:15.063Z,3.22
2019-04-28T21:17:21.905Z,3.17
2019-04-28T21:22:24.564Z,3.10
2019-04-28T21:27:27.680Z,2.92
2019-04-28T21:32:38.941Z,3.17
2019-04-28T21:37:41.421Z,3.12
2019-04-28T21:43:01.945Z,3.60
2019-04-28T21:48:05.015Z,3.40
2019-04-28T21:53:09.478Z,3.35
2019-04-28T21:58:13.910Z,3.35
2019-04-28T22:03:21.573Z,3.00
2019-04-28T22:08:24.465Z,3.33
2019-04-28T22:13:27.443Z,3.62
2019-04-28T22:18:30.474Z,3.52
2019-04-28T22:23:44.173Z,3.52
2019-04-28T22:28:47.187Z,3.50
2019-04-28T22:33:49.721Z,3.58
2019-04-28T22:38:52.100Z,3.47
2019-04-28T22:44:13.707Z,3.77
2019-04-28T22:49:16.535Z,4.00
2019-04-28T22:54:31.340Z,4.65
2019-04-28T22:59:38.271Z,4.17
2019-04-28T23:04:55.659Z,4.47
2019-04-28T23:09:58.835Z,4.22
2019-04-28T23:15:01.538Z,4.70
2019-04-28T23:20:08.662Z,4.55
2019-04-28T23:25:11.059Z,5.03
2019-04-28T23:30:33.504Z,5.28
2019-04-28T23:35:35.939Z,5.45
2019-04-28T23:40:43.160Z,5.35
2019-04-28T23:45:45.668Z,5.50
2019-04-28T23:51:22.578Z,5.40
2019-04-28T23:56:24.773Z,4.67
